sensor_id;sensor_type;location;lat;lon;timestamp;temperature;humidity
20422;DHT22;10370;53.102;18.034;2022-07-30T00:03:32;16.30;99.90
20422;DHT22;10370;53.102;18.034;2022-07-30T00:08:53;16.30;99.90
20422;DHT22;10370;53.102;18.034;2022-07-30T00:14:14;16.30;99.90
20422;DHT22;10370;53.102;18.034;2022-07-30T00:19:35;16.20;99.90
20422;DHT22;10370;53.102;18.034;2022-07-30T00:24:57;16.10;99.90
20422;DHT22;10370;53.102;18.034;2022-07-30T00:30:18;16.00;99.90
20422;DHT22;10370;53.102;18.034;2022-07-30T00:35:39;15.90;99.90
20422;DHT22;10370;53.102;18.034;2022-07-30T00:41:00;15.90;99.90
20422;DHT22;10370;53.102;18.034;2022-07-30T00:46:21;15.90;99.90
20422;DHT22;10370;53.102;18.034;2022-07-30T00:51:42;15.70;99.90
20422;DHT22;10370;53.102;18.034;2022-07-30T00:57:03;15.60;99.90
20422;DHT22;10370;53.102;18.034;2022-07-30T01:02:24;15.60;99.90
20422;DHT22;10370;53.102;18.034;2022-07-30T01:07:45;15.60;99.90
20422;DHT22;10370;53.102;18.034;2022-07-30T01:13:07;15.50;99.90
20422;DHT22;10370;53.102;18.034;2022-07-30T01:18:29;15.40;99.90
20422;DHT22;10370;53.102;18.034;2022-07-30T01:24:32;15.40;99.90
20422;DHT22;10370;53.102;18.034;2022-07-30T01:29:55;15.40;99.90
20422;DHT22;10370;53.102;18.034;2022-07-30T01:35:19;15.30;99.90
20422;DHT22;10370;53.102;18.034;2022-07-30T01:40:43;15.20;99.90
20422;DHT22;10370;53.102;18.034;2022-07-30T01:46:06;15.10;99.90
20422;DHT22;10370;53.102;18.034;2022-07-30T01:51:29;15.00;99.90
20422;DHT22;10370;53.102;18.034;2022-07-30T01:56:53;15.00;99.90
20422;DHT22;10370;53.102;18.034;2022-07-30T02:02:16;15.00;99.90
20422;DHT22;10370;53.102;18.034;2022-07-30T02:08:06;15.10;99.90
20422;DHT22;10370;53.102;18.034;2022-07-30T02:13:29;15.20;99.90
20422;DHT22;10370;53.102;18.034;2022-07-30T02:19:01;15.30;99.90
20422;DHT22;10370;53.102;18.034;2022-07-30T02:24:27;15.30;99.90
20422;DHT22;10370;53.102;18.034;2022-07-30T02:29:49;15.20;99.90
20422;DHT22;10370;53.102;18.034;2022-07-30T02:35:19;15.20;99.90
20422;DHT22;10370;53.102;18.034;2022-07-30T02:40:41;15.00;99.90
20422;DHT22;10370;53.102;18.034;2022-07-30T02:46:03;14.90;99.90
20422;DHT22;10370;53.102;18.034;2022-07-30T02:56:47;14.60;99.90
20422;DHT22;10370;53.102;18.034;2022-07-30T03:02:11;14.50;99.90
20422;DHT22;10370;53.102;18.034;2022-07-30T03:07:35;14.40;99.90
20422;DHT22;10370;53.102;18.034;2022-07-30T03:12:57;14.40;99.90
20422;DHT22;10370;53.102;18.034;2022-07-30T03:18:21;14.40;99.90
20422;DHT22;10370;53.102;18.034;2022-07-30T03:23:45;14.40;99.90
20422;DHT22;10370;53.102;18.034;2022-07-30T03:29:08;14.40;99.90
20422;DHT22;10370;53.102;18.034;2022-07-30T03:34:32;14.50;99.90
20422;DHT22;10370;53.102;18.034;2022-07-30T03:39:54;14.50;99.90
20422;DHT22;10370;53.102;18.034;2022-07-30T03:45:20;14.60;99.90
20422;DHT22;10370;53.102;18.034;2022-07-30T03:50:46;14.70;99.90
20422;DHT22;10370;53.102;18.034;2022-07-30T03:56:07;14.90;99.90
20422;DHT22;10370;53.102;18.034;2022-07-30T04:01:28;14.90;99.90
20422;DHT22;10370;53.102;18.034;2022-07-30T04:06:49;14.90;99.90
20422;DHT22;10370;53.102;18.034;2022-07-30T04:12:10;15.00;99.90
20422;DHT22;10370;53.102;18.034;2022-07-30T04:17:43;15.20;99.90
20422;DHT22;10370;53.102;18.034;2022-07-30T04:23:06;15.40;99.90
20422;DHT22;10370;53.102;18.034;2022-07-30T04:28:28;15.60;99.90
20422;DHT22;10370;53.102;18.034;2022-07-30T04:33:50;15.90;99.90
20422;DHT22;10370;53.102;18.034;2022-07-30T04:39:16;16.10;99.90
20422;DHT22;10370;53.102;18.034;2022-07-30T04:44:37;16.20;99.90
20422;DHT22;10370;53.102;18.034;2022-07-30T04:50:17;16.20;99.90
20422;DHT22;10370;53.102;18.034;2022-07-30T04:55:56;16.20;99.90
20422;DHT22;10370;53.102;18.034;2022-07-30T05:01:22;16.30;99.90
20422;DHT22;10370;53.102;18.034;2022-07-30T05:17:41;16.50;99.90
20422;DHT22;10370;53.102;18.034;2022-07-30T05:28:30;17.10;99.90
20422;DHT22;10370;53.102;18.034;2022-07-30T05:33:53;17.50;99.90
20422;DHT22;10370;53.102;18.034;2022-07-30T05:39:14;17.70;99.90
20422;DHT22;10370;53.102;18.034;2022-07-30T05:44:35;19.30;99.90
20422;DHT22;10370;53.102;18.034;2022-07-30T05:49:58;19.80;99.90
20422;DHT22;10370;53.102;18.034;2022-07-30T05:55:25;20.50;99.90
20422;DHT22;10370;53.102;18.034;2022-07-30T06:00:46;21.40;99.90
20422;DHT22;10370;53.102;18.034;2022-07-30T06:11:28;22.90;99.90
20422;DHT22;10370;53.102;18.034;2022-07-30T06:16:45;22.10;99.90
20422;DHT22;10370;53.102;18.034;2022-07-30T06:22:29;21.00;99.90
20422;DHT22;10370;53.102;18.034;2022-07-30T06:27:50;20.20;99.90
20422;DHT22;10370;53.102;18.034;2022-07-30T06:33:13;19.70;99.90
20422;DHT22;10370;53.102;18.034;2022-07-30T06:38:35;19.40;99.90
20422;DHT22;10370;53.102;18.034;2022-07-30T06:55:32;19.30;99.90
20422;DHT22;10370;53.102;18.034;2022-07-30T07:00:53;19.30;99.90
20422;DHT22;10370;53.102;18.034;2022-07-30T07:06:14;19.40;99.90
20422;DHT22;10370;53.102;18.034;2022-07-30T07:11:48;19.30;99.90
20422;DHT22;10370;53.102;18.034;2022-07-30T07:17:15;19.40;99.90
20422;DHT22;10370;53.102;18.034;2022-07-30T07:22:46;19.70;99.90
20422;DHT22;10370;53.102;18.034;2022-07-30T07:28:10;20.10;99.90
20422;DHT22;10370;53.102;18.034;2022-07-30T07:33:33;20.30;99.90
20422;DHT22;10370;53.102;18.034;2022-07-30T07:38:55;20.40;99.90
20422;DHT22;10370;53.102;18.034;2022-07-30T07:44:32;20.70;99.90
20422;DHT22;10370;53.102;18.034;2022-07-30T07:49:54;20.70;99.90
20422;DHT22;10370;53.102;18.034;2022-07-30T07:55:17;21.00;99.90
20422;DHT22;10370;53.102;18.034;2022-07-30T08:00:39;21.20;99.90
20422;DHT22;10370;53.102;18.034;2022-07-30T08:06:01;21.20;99.90
20422;DHT22;10370;53.102;18.034;2022-07-30T08:11:31;21.50;99.90
20422;DHT22;10370;53.102;18.034;2022-07-30T08:17:01;21.70;99.90
20422;DHT22;10370;53.102;18.034;2022-07-30T08:22:24;21.70;99.90
20422;DHT22;10370;53.102;18.034;2022-07-30T08:27:45;21.90;99.90
20422;DHT22;10370;53.102;18.034;2022-07-30T08:33:17;22.00;99.90
20422;DHT22;10370;53.102;18.034;2022-07-30T08:38:38;22.10;99.90
20422;DHT22;10370;53.102;18.034;2022-07-30T08:44:00;22.30;99.90
20422;DHT22;10370;53.102;18.034;2022-07-30T09:00:04;22.80;99.90
20422;DHT22;10370;53.102;18.034;2022-07-30T09:10:57;23.00;99.90
20422;DHT22;10370;53.102;18.034;2022-07-30T09:16:24;23.10;99.90
20422;DHT22;10370;53.102;18.034;2022-07-30T09:32:49;23.30;99.20
20422;DHT22;10370;53.102;18.034;2022-07-30T09:38:11;23.30;97.80
20422;DHT22;10370;53.102;18.034;2022-07-30T09:49:13;23.50;97.10
20422;DHT22;10370;53.102;18.034;2022-07-30T09:54:48;23.50;95.60
20422;DHT22;10370;53.102;18.034;2022-07-30T10:00:26;23.40;94.80
20422;DHT22;10370;53.102;18.034;2022-07-30T10:11:13;23.30;93.70
20422;DHT22;10370;53.102;18.034;2022-07-30T10:22:37;23.20;92.20
20422;DHT22;10370;53.102;18.034;2022-07-30T10:27:58;23.40;91.60
20422;DHT22;10370;53.102;18.034;2022-07-30T11:03:26;23.70;85.10
20422;DHT22;10370;53.102;18.034;2022-07-30T11:09:37;23.70;85.60
20422;DHT22;10370;53.102;18.034;2022-07-30T12:00:41;23.90;93.80
20422;DHT22;10370;53.102;18.034;2022-07-30T12:06:11;23.70;94.40
20422;DHT22;10370;53.102;18.034;2022-07-30T12:11:39;23.50;94.80
20422;DHT22;10370;53.102;18.034;2022-07-30T12:17:00;23.50;95.70
20422;DHT22;10370;53.102;18.034;2022-07-30T12:27:48;23.20;96.40
20422;DHT22;10370;53.102;18.034;2022-07-30T12:33:11;23.10;97.20
20422;DHT22;10370;53.102;18.034;2022-07-30T12:38:43;22.90;98.00
20422;DHT22;10370;53.102;18.034;2022-07-30T12:55:09;22.80;99.30
20422;DHT22;10370;53.102;18.034;2022-07-30T13:06:23;22.60;99.80
20422;DHT22;10370;53.102;18.034;2022-07-30T13:11:45;22.50;99.90
20422;DHT22;10370;53.102;18.034;2022-07-30T13:17:08;22.50;99.90
20422;DHT22;10370;53.102;18.034;2022-07-30T13:22:30;22.40;99.90
20422;DHT22;10370;53.102;18.034;2022-07-30T13:27:51;22.40;99.90
20422;DHT22;10370;53.102;18.034;2022-07-30T13:33:13;22.40;99.90
20422;DHT22;10370;53.102;18.034;2022-07-30T13:38:35;22.40;99.90
20422;DHT22;10370;53.102;18.034;2022-07-30T13:43:56;22.40;99.90
20422;DHT22;10370;53.102;18.034;2022-07-30T13:49:17;22.40;99.90
20422;DHT22;10370;53.102;18.034;2022-07-30T13:54:38;22.40;99.90
20422;DHT22;10370;53.102;18.034;2022-07-30T13:59:59;22.40;99.90
20422;DHT22;10370;53.102;18.034;2022-07-30T14:05:21;22.40;99.90
20422;DHT22;10370;53.102;18.034;2022-07-30T14:10:42;22.50;99.90
20422;DHT22;10370;53.102;18.034;2022-07-30T14:16:03;22.50;99.90
20422;DHT22;10370;53.102;18.034;2022-07-30T14:21:42;22.40;99.90
20422;DHT22;10370;53.102;18.034;2022-07-30T14:27:03;22.50;99.90
20422;DHT22;10370;53.102;18.034;2022-07-30T14:32:25;22.50;99.90
20422;DHT22;10370;53.102;18.034;2022-07-30T14:37:50;22.50;99.90
20422;DHT22;10370;53.102;18.034;2022-07-30T14:43:11;22.40;99.90
20422;DHT22;10370;53.102;18.034;2022-07-30T14:48:34;22.40;99.90
20422;DHT22;10370;53.102;18.034;2022-07-30T14:53:56;22.40;99.90
20422;DHT22;10370;53.102;18.034;2022-07-30T14:59:17;22.40;99.90
20422;DHT22;10370;53.102;18.034;2022-07-30T15:04:38;22.40;99.90
20422;DHT22;10370;53.102;18.034;2022-07-30T15:09:59;22.30;99.90
20422;DHT22;10370;53.102;18.034;2022-07-30T15:15:21;22.20;99.90
20422;DHT22;10370;53.102;18.034;2022-07-30T15:20:43;22.00;99.90
20422;DHT22;10370;53.102;18.034;2022-07-30T15:26:06;21.90;99.90
20422;DHT22;10370;53.102;18.034;2022-07-30T15:31:27;21.80;99.90
20422;DHT22;10370;53.102;18.034;2022-07-30T15:36:49;21.60;99.90
20422;DHT22;10370;53.102;18.034;2022-07-30T15:42:10;21.30;99.90
20422;DHT22;10370;53.102;18.034;2022-07-30T15:47:31;21.10;99.90
20422;DHT22;10370;53.102;18.034;2022-07-30T15:52:52;20.90;99.90
20422;DHT22;10370;53.102;18.034;2022-07-30T15:58:14;20.70;99.90
20422;DHT22;10370;53.102;18.034;2022-07-30T16:03:35;20.50;99.90
20422;DHT22;10370;53.102;18.034;2022-07-30T16:08:57;20.40;99.90
20422;DHT22;10370;53.102;18.034;2022-07-30T16:14:17;20.10;99.90
20422;DHT22;10370;53.102;18.034;2022-07-30T16:19:39;20.10;99.90
20422;DHT22;10370;53.102;18.034;2022-07-30T16:25:04;20.00;99.90
20422;DHT22;10370;53.102;18.034;2022-07-30T16:30:25;19.90;99.90
20422;DHT22;10370;53.102;18.034;2022-07-30T16:35:47;19.70;99.90
20422;DHT22;10370;53.102;18.034;2022-07-30T16:41:10;19.70;99.90
20422;DHT22;10370;53.102;18.034;2022-07-30T16:46:33;19.70;99.90
20422;DHT22;10370;53.102;18.034;2022-07-30T16:51:54;19.70;99.90
20422;DHT22;10370;53.102;18.034;2022-07-30T16:57:15;19.70;99.90
20422;DHT22;10370;53.102;18.034;2022-07-30T17:02:36;19.70;99.90
20422;DHT22;10370;53.102;18.034;2022-07-30T17:07:57;19.70;99.90
20422;DHT22;10370;53.102;18.034;2022-07-30T17:13:19;19.60;99.90
20422;DHT22;10370;53.102;18.034;2022-07-30T17:18:40;19.60;99.90
20422;DHT22;10370;53.102;18.034;2022-07-30T17:24:01;19.60;99.90
20422;DHT22;10370;53.102;18.034;2022-07-30T17:29:22;19.40;99.90
20422;DHT22;10370;53.102;18.034;2022-07-30T17:34:43;19.40;99.90
20422;DHT22;10370;53.102;18.034;2022-07-30T17:40:05;19.40;99.90
20422;DHT22;10370;53.102;18.034;2022-07-30T17:45:46;19.30;99.90
20422;DHT22;10370;53.102;18.034;2022-07-30T17:51:07;19.20;99.90
20422;DHT22;10370;53.102;18.034;2022-07-30T17:56:29;19.10;99.90
20422;DHT22;10370;53.102;18.034;2022-07-30T18:01:50;19.10;99.90
20422;DHT22;10370;53.102;18.034;2022-07-30T18:07:11;19.20;99.90
20422;DHT22;10370;53.102;18.034;2022-07-30T18:12:32;19.20;99.90
20422;DHT22;10370;53.102;18.034;2022-07-30T18:18:00;19.00;99.90
20422;DHT22;10370;53.102;18.034;2022-07-30T18:23:34;19.00;99.90
20422;DHT22;10370;53.102;18.034;2022-07-30T18:28:55;19.00;99.90
20422;DHT22;10370;53.102;18.034;2022-07-30T18:34:16;18.90;99.90
20422;DHT22;10370;53.102;18.034;2022-07-30T18:39:37;18.70;99.90
20422;DHT22;10370;53.102;18.034;2022-07-30T18:44:58;18.60;99.90
20422;DHT22;10370;53.102;18.034;2022-07-30T18:50:19;18.60;99.90
20422;DHT22;10370;53.102;18.034;2022-07-30T18:55:40;18.50;99.90
20422;DHT22;10370;53.102;18.034;2022-07-30T19:01:01;18.50;99.90
20422;DHT22;10370;53.102;18.034;2022-07-30T19:06:22;18.50;99.90
20422;DHT22;10370;53.102;18.034;2022-07-30T19:11:46;18.50;99.90
20422;DHT22;10370;53.102;18.034;2022-07-30T19:17:07;18.30;99.90
20422;DHT22;10370;53.102;18.034;2022-07-30T19:22:33;18.30;99.90
20422;DHT22;10370;53.102;18.034;2022-07-30T19:27:54;18.20;99.90
20422;DHT22;10370;53.102;18.034;2022-07-30T19:33:15;18.20;99.90
20422;DHT22;10370;53.102;18.034;2022-07-30T19:38:36;18.10;99.90
20422;DHT22;10370;53.102;18.034;2022-07-30T19:44:01;18.10;99.90
20422;DHT22;10370;53.102;18.034;2022-07-30T19:49:23;18.00;99.90
20422;DHT22;10370;53.102;18.034;2022-07-30T19:54:45;17.90;99.90
20422;DHT22;10370;53.102;18.034;2022-07-30T20:00:07;17.90;99.90
20422;DHT22;10370;53.102;18.034;2022-07-30T20:05:28;17.90;99.90
20422;DHT22;10370;53.102;18.034;2022-07-30T20:10:49;17.80;99.90
20422;DHT22;10370;53.102;18.034;2022-07-30T20:16:11;17.80;99.90
20422;DHT22;10370;53.102;18.034;2022-07-30T20:21:32;17.80;99.90
20422;DHT22;10370;53.102;18.034;2022-07-30T20:27:15;17.70;99.90
20422;DHT22;10370;53.102;18.034;2022-07-30T20:32:55;17.60;99.90
20422;DHT22;10370;53.102;18.034;2022-07-30T20:38:16;17.70;99.90
20422;DHT22;10370;53.102;18.034;2022-07-30T20:43:37;17.60;99.90
20422;DHT22;10370;53.102;18.034;2022-07-30T20:49:05;17.60;99.90
20422;DHT22;10370;53.102;18.034;2022-07-30T20:54:27;17.50;99.90
20422;DHT22;10370;53.102;18.034;2022-07-30T20:59:48;17.50;99.90
20422;DHT22;10370;53.102;18.034;2022-07-30T21:05:09;17.40;99.90
20422;DHT22;10370;53.102;18.034;2022-07-30T21:10:30;17.40;99.90
20422;DHT22;10370;53.102;18.034;2022-07-30T21:15:52;17.40;99.90
20422;DHT22;10370;53.102;18.034;2022-07-30T21:21:21;17.30;99.90
20422;DHT22;10370;53.102;18.034;2022-07-30T21:26:49;17.20;99.90
20422;DHT22;10370;53.102;18.034;2022-07-30T21:32:10;17.20;99.90
20422;DHT22;10370;53.102;18.034;2022-07-30T21:37:31;17.20;99.90
20422;DHT22;10370;53.102;18.034;2022-07-30T21:42:55;17.10;99.90
20422;DHT22;10370;53.102;18.034;2022-07-30T21:48:16;17.10;99.90
20422;DHT22;10370;53.102;18.034;2022-07-30T21:53:37;17.10;99.90
20422;DHT22;10370;53.102;18.034;2022-07-30T21:59:04;17.10;99.90
20422;DHT22;10370;53.102;18.034;2022-07-30T22:04:24;17.10;99.90
20422;DHT22;10370;53.102;18.034;2022-07-30T22:09:46;17.10;99.90
20422;DHT22;10370;53.102;18.034;2022-07-30T22:15:07;17.00;99.90
20422;DHT22;10370;53.102;18.034;2022-07-30T22:20:29;17.00;99.90
20422;DHT22;10370;53.102;18.034;2022-07-30T22:25:51;17.00;99.90
20422;DHT22;10370;53.102;18.034;2022-07-30T22:31:13;16.90;99.90
20422;DHT22;10370;53.102;18.034;2022-07-30T22:36:34;16.90;99.90
20422;DHT22;10370;53.102;18.034;2022-07-30T22:41:55;16.90;99.90
20422;DHT22;10370;53.102;18.034;2022-07-30T22:47:16;16.80;99.90
20422;DHT22;10370;53.102;18.034;2022-07-30T22:52:39;16.80;99.90
20422;DHT22;10370;53.102;18.034;2022-07-30T22:58:03;16.80;99.90
20422;DHT22;10370;53.102;18.034;2022-07-30T23:03:24;16.90;99.90
20422;DHT22;10370;53.102;18.034;2022-07-30T23:08:45;16.90;99.90
20422;DHT22;10370;53.102;18.034;2022-07-30T23:14:08;16.80;99.90
20422;DHT22;10370;53.102;18.034;2022-07-30T23:19:30;16.70;99.90
20422;DHT22;10370;53.102;18.034;2022-07-30T23:24:51;16.70;99.90
20422;DHT22;10370;53.102;18.034;2022-07-30T23:30:12;16.60;99.90
20422;DHT22;10370;53.102;18.034;2022-07-30T23:35:33;16.60;99.90
20422;DHT22;10370;53.102;18.034;2022-07-30T23:40:54;16.60;99.90
20422;DHT22;10370;53.102;18.034;2022-07-30T23:46:20;16.60;99.90
20422;DHT22;10370;53.102;18.034;2022-07-30T23:51:41;16.60;99.90
20422;DHT22;10370;53.102;18.034;2022-07-30T23:57:02;16.50;99.90
